Home   Weather   United Kingdom   London   Past weeks
Flag for United Kingdom

Past Weather in London, England, United Kingdom — November 2017

Currently: 57 °F. Overcast. (Weather station: Northolt, United Kingdom). See more current weather

November 2017 Weather in London — Graph

°F

High & Low Weather Summary for November 2017

 TemperatureHumidityPressure
High61 °F (Nov 1, 1:50 pm)100% (Nov 1, 12:50 am)30.42 "Hg (Nov 1, 12:50 am)
Low27 °F (Nov 25, 2:50 am)47% (Nov 10, 11:50 am)29.12 "Hg (Nov 23, 1:50 am)
Average45 °F84%30.00 "Hg
* Reported Nov 1 12:50 am — Nov 30 11:50 pm, London. Weather by CustomWeather, © 2021

Note: Actual official high and low records may vary slightly from our data, if they occured in-between our weather recording intervals... More about our weather records

London Weather History for November 1, 2017

Scroll right to see more
 ConditionsComfort  
Time TempWeatherWind HumidityBarometerVisibility
12:50 am
Wed, Nov 1
46 °FPassing clouds.3 mph100%30.18 "Hg6 mi
1:50 am46 °FPassing clouds.2 mph100%30.18 "Hg5 mi
2:50 am46 °FPassing clouds.2 mph100%30.15 "HgN/A
3:50 am46 °FOvercast.3 mph100%30.15 "HgN/A
4:50 am45 °FOvercast.2 mph100%30.15 "Hg4 mi
5:50 am46 °FPassing clouds.1 mph93%30.15 "HgN/A
6:50 am45 °FFog.1 mph93%30.15 "Hg4 mi
7:12 am43 °FPartly sunny.No wind100%30.15 "Hg4 mi
7:50 am45 °FFog.1 mph93%30.15 "Hg4 mi
8:50 am48 °FFog.2 mph100%30.15 "Hg5 mi
9:50 am54 °FSunny.6 mph88%30.12 "Hg10 mi
10:50 am55 °FSunny.6 mph82%30.12 "Hg10 mi
11:50 am57 °FSunny.6 mph72%30.09 "Hg10 mi
12:50 pm59 °FSunny.6 mph63%30.07 "Hg10 mi
1:50 pm61 °FSunny.7 mph52%30.04 "Hg10 mi
2:50 pm59 °FSunny.6 mph55%30.04 "Hg10 mi
3:50 pm59 °FSunny.5 mph59%30.01 "Hg10 mi
4:50 pm54 °FClear.1 mph77%30.01 "Hg10 mi
5:50 pm54 °FClear.6 mph72%30.01 "Hg10 mi
6:50 pm52 °FClear.5 mph82%30.01 "Hg10 mi
7:50 pm48 °FClear.5 mph87%29.98 "Hg10 mi
8:50 pm45 °FClear.2 mph93%29.98 "Hg10 mi
9:50 pm41 °FFog.1 mph100%29.98 "Hg5 mi
10:50 pm39 °FClear.2 mph100%29.98 "Hg5 mi
11:50 pm39 °FClear.1 mph100%29.98 "Hg5 mi
Weather by CustomWeather, © 2021

See weather overview